createdAt,value
2018-06-22T00:00:02.326Z,82.14
2018-06-22T00:01:55.821Z,82.28
2018-06-22T00:02:55.283Z,81.95
2018-06-22T00:04:48.257Z,81.99
2018-06-22T00:05:48.265Z,81.89
2018-06-22T00:07:41.241Z,82.04
2018-06-22T00:08:41.202Z,82.28
2018-06-22T00:10:34.162Z,81.95
2018-06-22T00:11:34.163Z,82.08
2018-06-22T00:13:27.148Z,82.04
2018-06-22T00:14:27.116Z,82.52
2018-06-22T00:16:21.833Z,82.71
2018-06-22T00:17:20.699Z,82.71
2018-06-22T00:19:13.097Z,82.90
2018-06-22T00:20:13.040Z,83.28
2018-06-22T00:22:05.991Z,83.57
2018-06-22T00:23:06.982Z,83.57
2018-06-22T00:24:58.983Z,83.86
2018-06-22T00:25:58.941Z,84.33
2018-06-22T00:27:51.985Z,84.23
2018-06-22T00:28:51.902Z,84.23
2018-06-22T00:30:44.873Z,84.43
2018-06-22T00:31:44.874Z,84.52
2018-06-22T00:33:37.851Z,84.62
2018-06-22T00:34:37.815Z,84.81
2018-06-22T00:36:30.787Z,84.72
2018-06-22T00:37:30.806Z,84.81
2018-06-22T00:39:23.760Z,84.62
2018-06-22T00:40:23.736Z,84.33
2018-06-22T00:42:16.699Z,84.81
2018-06-22T00:43:16.685Z,84.52
2018-06-22T00:45:09.677Z,84.62
2018-06-22T00:46:09.641Z,84.81
2018-06-22T00:48:02.654Z,84.81
2018-06-22T00:49:02.596Z,85.00
2018-06-22T00:50:55.562Z,84.91
2018-06-22T00:51:55.567Z,84.72
2018-06-22T00:53:48.564Z,84.72
2018-06-22T00:54:48.512Z,84.72
2018-06-22T00:56:41.480Z,84.52
2018-06-22T00:57:41.481Z,84.81
2018-06-22T00:59:34.455Z,83.95
2018-06-22T01:00:34.433Z,84.43
2018-06-22T01:02:27.402Z,84.72
2018-06-22T01:03:27.383Z,84.62
2018-06-22T01:05:20.389Z,84.62
2018-06-22T01:06:20.364Z,84.14
2018-06-22T01:08:13.344Z,84.14
2018-06-22T01:09:13.305Z,84.81
2018-06-22T01:11:06.299Z,85.29
2018-06-22T01:12:06.270Z,84.72
2018-06-22T01:13:59.219Z,84.81
2018-06-22T01:14:59.214Z,84.52
2018-06-22T01:16:52.212Z,84.81
2018-06-22T01:17:52.175Z,84.91
2018-06-22T01:19:45.137Z,84.52
2018-06-22T01:20:45.145Z,84.52
2018-06-22T01:22:38.131Z,84.05
2018-06-22T01:23:38.095Z,83.86
2018-06-22T01:25:31.049Z,83.95
2018-06-22T01:26:31.043Z,83.76
2018-06-22T01:28:24.024Z,83.86
2018-06-22T01:29:24.003Z,84.05
2018-06-22T01:31:16.978Z,83.28
2018-06-22T01:32:16.968Z,83.18
2018-06-22T01:34:09.989Z,83.57
2018-06-22T01:35:09.912Z,83.57
2018-06-22T01:37:02.889Z,83.67
2018-06-22T01:38:02.873Z,83.86
2018-06-22T01:39:55.863Z,83.95
2018-06-22T01:40:55.837Z,83.95
2018-06-22T01:42:48.817Z,83.57
2018-06-22T01:43:48.790Z,83.57
2018-06-22T01:45:41.759Z,84.05
2018-06-22T01:46:41.742Z,83.95
2018-06-22T01:48:34.773Z,84.33
2018-06-22T01:49:34.709Z,84.23
2018-06-22T01:51:27.671Z,84.33
2018-06-22T01:52:27.661Z,83.76
2018-06-22T01:54:20.643Z,83.86
2018-06-22T01:55:20.630Z,84.05
2018-06-22T01:57:13.575Z,83.76
2018-06-22T01:58:13.571Z,83.95
2018-06-22T02:00:06.566Z,83.67
2018-06-22T02:01:06.538Z,84.05
2018-06-22T02:03:03.587Z,83.76
2018-06-22T02:04:03.592Z,83.80
2018-06-22T02:05:56.704Z,83.70
2018-06-22T02:06:57.531Z,83.76
2018-06-22T02:08:49.512Z,83.47
2018-06-22T02:09:49.513Z,83.90
2018-06-22T02:11:42.486Z,83.67
2018-06-22T02:12:42.462Z,83.57
2018-06-22T02:14:35.416Z,83.70
2018-06-22T02:15:35.431Z,83.90
2018-06-22T02:17:28.400Z,84.14
2018-06-22T02:18:28.374Z,84.14
2018-06-22T02:20:21.332Z,83.86
2018-06-22T02:21:21.336Z,84.23
2018-06-22T02:23:14.313Z,84.23
2018-06-22T02:24:14.296Z,84.05
2018-06-22T02:26:07.249Z,84.33
2018-06-22T02:27:07.241Z,84.76
2018-06-22T02:29:00.243Z,84.91
2018-06-22T02:30:00.206Z,84.62
2018-06-22T02:31:53.167Z,85.29
2018-06-22T02:32:53.159Z,85.19
2018-06-22T02:34:46.147Z,85.48
2018-06-22T02:35:46.119Z,85.38
2018-06-22T02:37:39.082Z,85.29
2018-06-22T02:38:39.077Z,86.05
2018-06-22T02:40:32.066Z,85.58
2018-06-22T02:41:32.026Z,86.24
2018-06-22T02:43:24.999Z,86.05
2018-06-22T02:44:24.997Z,85.96
2018-06-22T02:46:17.980Z,85.48
2018-06-22T02:47:17.947Z,86.15
2018-06-22T02:49:10.911Z,86.43
2018-06-22T02:50:10.907Z,86.24
2018-06-22T02:52:03.903Z,86.63
2018-06-22T02:53:03.879Z,86.82
2018-06-22T02:54:57.293Z,87.29
2018-06-22T02:55:57.078Z,88.06
2018-06-22T02:56:56.819Z,87.87
2018-06-22T02:58:49.819Z,87.77
2018-06-22T02:59:49.821Z,87.87
2018-06-22T03:01:42.735Z,87.68
2018-06-22T03:02:42.738Z,88.34
2018-06-22T03:04:35.723Z,88.15
2018-06-22T03:05:35.750Z,88.34
2018-06-22T03:07:28.719Z,88.73
2018-06-22T03:08:28.705Z,89.01
2018-06-22T03:10:21.660Z,88.63
2018-06-22T03:11:21.617Z,88.54
2018-06-22T03:13:14.580Z,88.06
2018-06-22T03:14:14.570Z,88.25
2018-06-22T03:16:07.556Z,87.68
2018-06-22T03:17:07.534Z,87.87
2018-06-22T03:18:07.528Z,88.06
2018-06-22T03:19:07.527Z,88.25
2018-06-22T03:20:07.528Z,88.73
2018-06-22T03:21:07.530Z,89.49
2018-06-22T03:22:07.536Z,89.59
2018-06-22T03:23:07.532Z,90.64
2018-06-22T03:24:07.534Z,90.16
2018-06-22T03:25:07.540Z,90.16
2018-06-22T03:26:07.542Z,90.16
2018-06-22T03:27:07.543Z,89.78
2018-06-22T03:28:07.547Z,90.35
2018-06-22T03:29:07.555Z,90.16
2018-06-22T03:30:07.555Z,90.35
2018-06-22T03:31:07.557Z,91.11
2018-06-22T03:32:07.591Z,91.40
2018-06-22T03:33:07.552Z,91.30
2018-06-22T03:34:07.562Z,90.83
2018-06-22T03:35:07.566Z,90.92
2018-06-22T03:36:07.558Z,90.64
2018-06-22T03:37:07.564Z,91.50
2018-06-22T03:38:07.567Z,92.26
2018-06-22T03:39:07.569Z,92.64
2018-06-22T03:40:07.566Z,93.12
2018-06-22T03:41:07.573Z,93.50
2018-06-22T03:42:07.580Z,93.79
2018-06-22T03:43:08.518Z,94.46
2018-06-22T03:44:07.576Z,94.36
2018-06-22T03:45:07.584Z,95.51
2018-06-22T03:46:07.585Z,96.17
2018-06-22T03:47:07.587Z,96.56
2018-06-22T03:48:07.590Z,97.13
2018-06-22T03:49:07.590Z,97.23
2018-06-22T03:50:07.591Z,97.13
2018-06-22T03:51:07.597Z,96.84
2018-06-22T03:52:07.602Z,97.32
2018-06-22T03:53:07.596Z,97.13
2018-06-22T03:54:07.603Z,97.32
2018-06-22T03:55:07.607Z,97.13
2018-06-22T03:56:07.606Z,97.13
2018-06-22T03:57:07.602Z,96.75
2018-06-22T03:58:07.607Z,96.75
2018-06-22T03:59:07.615Z,95.98
2018-06-22T04:00:07.607Z,96.37
2018-06-22T04:01:07.615Z,96.27
2018-06-22T04:02:07.624Z,96.46
2018-06-22T04:03:08.522Z,96.94
2018-06-22T04:04:07.622Z,97.13
2018-06-22T04:05:07.624Z,97.13
2018-06-22T04:06:07.625Z,97.71
2018-06-22T04:07:07.627Z,98.18
2018-06-22T04:08:07.678Z,97.42
2018-06-22T04:09:07.630Z,97.71
2018-06-22T04:10:07.641Z,97.61
2018-06-22T04:11:07.638Z,97.61
2018-06-22T04:12:07.638Z,97.52
2018-06-22T04:13:07.637Z,97.32
2018-06-22T04:14:08.526Z,97.13
2018-06-22T04:15:07.643Z,97.32
2018-06-22T04:16:07.643Z,97.32
2018-06-22T04:17:07.642Z,97.80
2018-06-22T04:18:07.646Z,97.23
2018-06-22T04:19:07.650Z,97.42
2018-06-22T04:20:07.659Z,98.37
2018-06-22T04:21:07.653Z,98.66
2018-06-22T04:22:07.656Z,97.61
2018-06-22T04:23:07.665Z,98.47
2018-06-22T04:24:07.662Z,98.66
2018-06-22T04:25:07.664Z,98.66
2018-06-22T04:26:07.665Z,98.47
2018-06-22T04:27:07.667Z,98.47
2018-06-22T04:28:07.668Z,98.57
2018-06-22T04:29:07.678Z,98.47
2018-06-22T04:31:00.649Z,97.89
2018-06-22T04:32:00.621Z,98.47
2018-06-22T04:33:53.604Z,98.28
2018-06-22T04:34:53.576Z,98.32
2018-06-22T04:36:46.549Z,98.66
2018-06-22T04:37:46.539Z,98.66
2018-06-22T04:39:39.519Z,98.18
2018-06-22T04:40:39.500Z,98.08
2018-06-22T04:42:32.448Z,98.47
2018-06-22T04:43:32.455Z,98.47
2018-06-22T04:45:25.454Z,98.75
2018-06-22T04:46:25.411Z,98.47
2018-06-22T04:48:18.371Z,98.28
2018-06-22T04:49:18.366Z,98.52
2018-06-22T04:51:11.860Z,98.52
2018-06-22T04:52:11.327Z,98.99
2018-06-22T04:54:04.277Z,98.52
2018-06-22T04:55:04.285Z,99.18
2018-06-22T04:56:57.269Z,98.90
2018-06-22T04:57:57.239Z,98.99
2018-06-22T04:59:50.194Z,99.57
2018-06-22T05:00:50.200Z,98.71
2018-06-22T05:02:43.202Z,98.61
2018-06-22T05:03:43.180Z,98.71
2018-06-22T05:05:36.121Z,99.28
2018-06-22T05:06:36.113Z,99.66
2018-06-22T05:08:29.110Z,99.37
2018-06-22T05:09:29.064Z,99.76
2018-06-22T05:11:22.025Z,98.99
2018-06-22T05:12:22.021Z,99.66
2018-06-22T05:14:15.019Z,99.99
2018-06-22T05:15:14.975Z,99.37
2018-06-22T05:17:07.973Z,99.99
2018-06-22T05:18:07.948Z,99.99
2018-06-22T05:20:01.042Z,99.99
2018-06-22T05:21:00.900Z,99.99
2018-06-22T05:22:00.895Z,99.99
2018-06-22T05:23:00.899Z,99.99
2018-06-22T05:24:00.902Z,99.99
2018-06-22T05:25:00.903Z,99.99
2018-06-22T05:26:00.909Z,99.99
2018-06-22T05:27:00.908Z,99.99
2018-06-22T05:28:00.911Z,99.99
2018-06-22T05:29:00.905Z,99.99
2018-06-22T05:30:00.913Z,99.99
2018-06-22T05:31:00.915Z,99.99
2018-06-22T05:32:00.912Z,99.99
2018-06-22T05:33:00.922Z,99.99
2018-06-22T05:34:00.914Z,99.99
2018-06-22T05:35:00.937Z,99.99
2018-06-22T05:36:00.923Z,99.99
2018-06-22T05:37:00.919Z,99.99
2018-06-22T05:38:00.933Z,99.99
2018-06-22T05:39:53.904Z,99.99
2018-06-22T05:40:53.878Z,99.99
2018-06-22T05:42:46.862Z,99.99
2018-06-22T05:43:46.846Z,99.99
2018-06-22T05:45:40.609Z,99.99
2018-06-22T05:46:40.435Z,99.99
2018-06-22T05:48:33.871Z,99.99
2018-06-22T05:49:33.368Z,99.52
2018-06-22T05:51:27.117Z,98.99
2018-06-22T05:52:26.425Z,97.18
2018-06-22T05:54:19.400Z,96.32
2018-06-22T05:55:19.390Z,96.80
2018-06-22T05:56:19.386Z,97.28
2018-06-22T05:57:19.383Z,97.28
2018-06-22T05:58:19.393Z,97.18
2018-06-22T05:59:19.392Z,96.32
2018-06-22T06:00:19.391Z,95.03
2018-06-22T06:01:19.388Z,94.84
2018-06-22T06:02:19.397Z,94.26
2018-06-22T06:03:19.400Z,94.26
2018-06-22T06:04:19.413Z,93.88
2018-06-22T06:05:19.397Z,95.03
2018-06-22T06:06:19.404Z,94.36
2018-06-22T06:07:19.411Z,93.98
2018-06-22T06:08:19.413Z,95.51
2018-06-22T06:09:19.419Z,95.03
2018-06-22T06:10:19.422Z,95.03
2018-06-22T06:11:19.414Z,95.03
2018-06-22T06:12:19.427Z,94.84
2018-06-22T06:13:19.421Z,94.74
2018-06-22T06:14:19.422Z,95.41
2018-06-22T06:15:19.427Z,95.32
2018-06-22T06:16:19.426Z,94.46
2018-06-22T06:17:19.438Z,95.12
2018-06-22T06:18:19.437Z,93.50
2018-06-22T06:19:19.436Z,91.01
2018-06-22T06:20:19.445Z,90.53
2018-06-22T06:21:19.443Z,89.95
2018-06-22T06:22:19.452Z,89.09
2018-06-22T06:23:19.446Z,89.67
2018-06-22T06:24:19.457Z,89.19
2018-06-22T06:25:19.456Z,89.48
2018-06-22T06:26:19.474Z,89.19
2018-06-22T06:27:19.538Z,88.95
2018-06-22T06:28:19.471Z,89.72
2018-06-22T06:29:19.480Z,91.16
2018-06-22T06:30:19.571Z,92.02
2018-06-22T06:31:20.393Z,91.92
2018-06-22T06:33:12.528Z,93.26
2018-06-22T06:34:13.958Z,93.35
2018-06-22T06:36:05.379Z,92.78
2018-06-22T06:37:05.365Z,92.88
2018-06-22T06:38:58.891Z,91.73
2018-06-22T06:39:58.351Z,92.40
2018-06-22T06:41:51.374Z,92.21
2018-06-22T06:42:52.270Z,92.30
2018-06-22T06:44:44.267Z,93.35
2018-06-22T06:45:44.237Z,92.88
2018-06-22T06:47:37.233Z,90.53
2018-06-22T06:48:39.200Z,90.72
2018-06-22T06:50:30.193Z,90.53
2018-06-22T06:51:30.149Z,90.91
2018-06-22T06:53:23.132Z,89.52
2018-06-22T06:54:23.115Z,89.76
2018-06-22T06:56:16.105Z,89.62
2018-06-22T06:57:16.066Z,89.23
2018-06-22T06:59:09.057Z,88.33
2018-06-22T07:00:09.030Z,87.51
2018-06-22T07:02:02.008Z,87.27
2018-06-22T07:03:01.990Z,86.64
2018-06-22T07:04:02.004Z,84.77
2018-06-22T07:05:02.018Z,83.33
2018-06-22T07:06:02.001Z,83.52
2018-06-22T07:07:02.005Z,80.38
2018-06-22T07:08:02.032Z,78.55
2018-06-22T07:09:02.286Z,77.40
2018-06-22T07:10:02.009Z,76.42
2018-06-22T07:11:02.024Z,73.35
2018-06-22T07:12:03.097Z,73.60
2018-06-22T07:13:02.032Z,71.91
2018-06-22T07:14:02.040Z,72.96
2018-06-22T07:15:02.055Z,69.35
2018-06-22T07:16:02.053Z,66.39
2018-06-22T07:17:02.054Z,65.30
2018-06-22T07:18:02.061Z,62.63
2018-06-22T07:19:02.073Z,61.05
2018-06-22T07:20:02.063Z,58.89
2018-06-22T07:21:02.125Z,56.85
2018-06-22T07:22:02.096Z,55.46
2018-06-22T07:23:02.098Z,56.80
2018-06-22T07:24:02.098Z,59.83
2018-06-22T07:25:02.138Z,63.21
2018-06-22T07:26:02.120Z,65.53
2018-06-22T07:27:02.116Z,67.61
2018-06-22T07:28:02.141Z,69.21
2018-06-22T07:29:02.150Z,71.10
2018-06-22T07:30:02.155Z,72.16
2018-06-22T07:31:02.166Z,73.08
2018-06-22T07:32:02.173Z,73.18
2018-06-22T07:33:02.178Z,72.79
2018-06-22T07:34:02.179Z,70.75
2018-06-22T07:35:02.197Z,69.47
2018-06-22T07:36:02.232Z,66.14
2018-06-22T07:37:02.210Z,62.02
2018-06-22T07:38:02.214Z,59.60
2018-06-22T07:39:02.223Z,57.37
2018-06-22T07:40:02.232Z,55.34
2018-06-22T07:41:02.995Z,54.95
2018-06-22T07:42:02.245Z,54.83
2018-06-22T07:43:04.987Z,54.75
2018-06-22T07:44:02.371Z,54.83
2018-06-22T07:45:02.292Z,54.83
2018-06-22T07:46:02.289Z,53.99
2018-06-22T07:47:02.293Z,53.33
2018-06-22T07:48:02.317Z,53.69
2018-06-22T07:49:02.324Z,55.16
2018-06-22T07:50:02.339Z,56.56
2018-06-22T07:51:02.339Z,59.00
2018-06-22T07:52:02.993Z,61.41
2018-06-22T07:53:02.371Z,62.15
2018-06-22T07:54:02.378Z,62.90
2018-06-22T07:55:02.423Z,64.66
2018-06-22T07:56:02.397Z,65.43
2018-06-22T07:57:02.410Z,66.07
2018-06-22T07:58:02.417Z,65.11
2018-06-22T07:59:02.417Z,66.07
2018-06-22T08:00:02.428Z,64.40
2018-06-22T08:01:02.453Z,62.77
2018-06-22T08:02:02.462Z,62.51
2018-06-22T08:03:02.461Z,61.48
2018-06-22T08:04:02.468Z,60.68
2018-06-22T08:05:02.479Z,60.13
2018-06-22T08:06:02.500Z,59.59
2018-06-22T08:07:02.504Z,60.94
2018-06-22T08:08:02.510Z,59.72
2018-06-22T08:09:02.521Z,58.04
2018-06-22T08:10:02.535Z,56.94
2018-06-22T08:11:02.528Z,54.13
2018-06-22T08:12:02.562Z,51.56
2018-06-22T08:13:05.493Z,50.31
2018-06-22T08:14:02.573Z,49.70
2018-06-22T08:15:02.592Z,51.51
2018-06-22T08:16:02.586Z,51.03
2018-06-22T08:17:02.600Z,51.59
2018-06-22T08:18:02.605Z,49.73
2018-06-22T08:19:02.616Z,48.59
2018-06-22T08:20:02.640Z,48.95
2018-06-22T08:22:02.650Z,51.01
2018-06-22T08:23:02.667Z,52.50
2018-06-22T08:24:02.672Z,53.56
2018-06-22T08:25:02.688Z,53.08
2018-06-22T08:26:02.713Z,53.47
2018-06-22T08:27:02.700Z,53.08
2018-06-22T08:28:02.716Z,54.33
2018-06-22T08:29:02.727Z,55.10
2018-06-22T08:30:02.736Z,55.46
2018-06-22T08:31:02.750Z,55.36
2018-06-22T08:32:03.499Z,56.88
2018-06-22T08:33:02.773Z,60.23
2018-06-22T08:34:02.778Z,61.16
2018-06-22T08:35:02.795Z,62.19
2018-06-22T08:36:02.814Z,62.06
2018-06-22T08:37:02.827Z,63.12
2018-06-22T08:38:02.822Z,63.60
2018-06-22T08:39:02.831Z,63.12
2018-06-22T08:40:02.853Z,62.64
2018-06-22T08:41:02.860Z,62.19
2018-06-22T08:42:02.871Z,60.00
2018-06-22T08:43:02.864Z,60.49
2018-06-22T08:44:02.877Z,62.19
2018-06-22T08:45:02.889Z,62.87
2018-06-22T08:46:02.892Z,65.08
2018-06-22T08:47:02.901Z,66.04
2018-06-22T08:48:02.915Z,66.68
2018-06-22T08:49:02.951Z,65.43
2018-06-22T08:50:02.929Z,64.72
2018-06-22T08:51:02.949Z,60.57
2018-06-22T08:52:02.948Z,57.05
2018-06-22T08:53:02.956Z,56.45
2018-06-22T08:54:02.971Z,55.24
2018-06-22T08:55:02.984Z,55.60
2018-06-22T08:56:02.982Z,55.87
2018-06-22T08:57:02.986Z,54.15
2018-06-22T08:58:02.993Z,55.09
2018-06-22T08:59:03.016Z,52.24
2018-06-22T09:00:03.025Z,51.56
2018-06-22T09:01:03.028Z,50.07
2018-06-22T09:02:03.041Z,49.15
2018-06-22T09:03:03.045Z,50.33
2018-06-22T09:04:03.063Z,48.97
2018-06-22T09:05:03.065Z,49.54
2018-06-22T09:06:03.082Z,50.18
2018-06-22T09:07:03.090Z,50.26
2018-06-22T09:08:03.096Z,51.32
2018-06-22T09:09:03.130Z,51.03
2018-06-22T09:10:03.128Z,50.62
2018-06-22T09:11:03.136Z,51.10
2018-06-22T09:12:03.158Z,50.71
2018-06-22T09:13:03.155Z,51.17
2018-06-22T09:14:03.177Z,50.84
2018-06-22T09:15:03.193Z,49.24
2018-06-22T09:16:03.193Z,48.01
2018-06-22T09:17:05.026Z,46.51
2018-06-22T09:18:03.230Z,46.41
2018-06-22T09:19:03.225Z,45.42
2018-06-22T09:20:03.243Z,46.39
2018-06-22T09:21:03.250Z,46.56
2018-06-22T09:22:06.025Z,48.20
2018-06-22T09:23:03.291Z,49.44
2018-06-22T09:24:05.016Z,50.18
2018-06-22T09:25:03.306Z,52.07
2018-06-22T09:26:03.318Z,53.95
2018-06-22T09:27:03.320Z,55.01
2018-06-22T09:28:03.345Z,55.78
2018-06-22T09:29:03.344Z,55.59
2018-06-22T09:30:03.365Z,56.40
2018-06-22T09:31:05.035Z,58.01
2018-06-22T09:32:05.019Z,61.83
2018-06-22T09:33:03.395Z,65.01
2018-06-22T09:34:03.426Z,66.46
2018-06-22T09:35:03.482Z,66.52
2018-06-22T09:36:05.083Z,67.13
2018-06-22T09:37:05.116Z,69.45
2018-06-22T09:38:03.509Z,68.10
2018-06-22T09:39:03.470Z,68.84
2018-06-22T09:40:03.508Z,67.39
2018-06-22T09:41:03.773Z,68.74
2018-06-22T09:42:03.492Z,68.54
2018-06-22T09:43:03.493Z,69.22
2018-06-22T09:44:03.504Z,69.93
2018-06-22T09:45:03.508Z,68.61
2018-06-22T09:46:03.523Z,63.73
2018-06-22T09:47:03.525Z,65.43
2018-06-22T09:48:03.530Z,64.50
2018-06-22T09:49:03.551Z,61.95
2018-06-22T09:50:03.549Z,61.24
2018-06-22T09:51:03.569Z,58.34
2018-06-22T09:52:03.572Z,58.27
2018-06-22T09:53:03.594Z,57.59
2018-06-22T09:54:03.594Z,57.34
2018-06-22T09:55:03.618Z,59.89
2018-06-22T09:56:03.706Z,58.56
2018-06-22T09:57:03.726Z,58.07
2018-06-22T09:58:03.732Z,56.94
2018-06-22T09:59:03.682Z,54.91
2018-06-22T10:00:05.584Z,54.03
2018-06-22T10:01:03.686Z,55.40
2018-06-22T10:02:03.747Z,53.89
2018-06-22T10:03:05.574Z,52.32
2018-06-22T10:04:11.551Z,54.03
2018-06-22T10:05:11.556Z,53.04
2018-06-22T10:06:03.756Z,52.46
2018-06-22T10:07:03.754Z,53.04
2018-06-22T10:08:04.853Z,54.27
2018-06-22T10:09:06.548Z,54.85
2018-06-22T10:10:03.830Z,55.02
2018-06-22T10:11:03.797Z,55.43
2018-06-22T10:12:06.541Z,55.41
2018-06-22T10:13:03.825Z,54.44
2018-06-22T10:14:03.829Z,53.38
2018-06-22T10:15:03.858Z,52.53
2018-06-22T10:16:03.863Z,52.41
2018-06-22T10:17:03.871Z,52.09
2018-06-22T10:18:03.886Z,52.00
2018-06-22T10:19:03.899Z,53.03
2018-06-22T10:20:07.548Z,53.47
2018-06-22T10:21:03.935Z,52.22
2018-06-22T10:22:03.944Z,52.39
2018-06-22T10:23:03.943Z,52.02
2018-06-22T10:24:03.962Z,51.73
2018-06-22T10:25:03.978Z,51.15
2018-06-22T10:26:03.991Z,51.35
2018-06-22T10:27:04.040Z,52.75
2018-06-22T10:28:04.006Z,52.14
2018-06-22T10:29:04.026Z,53.11
2018-06-22T10:30:04.033Z,53.88
2018-06-22T10:31:04.048Z,55.10
2018-06-22T10:32:04.059Z,56.65
2018-06-22T10:33:04.071Z,57.29
2018-06-22T10:34:04.256Z,58.07
2018-06-22T10:35:04.096Z,58.65
2018-06-22T10:36:04.101Z,58.29
2018-06-22T10:37:05.059Z,56.58
2018-06-22T10:38:04.128Z,55.57
2018-06-22T10:39:04.142Z,54.99
2018-06-22T10:40:04.146Z,53.83
2018-06-22T10:41:04.155Z,52.77
2018-06-22T10:42:04.174Z,53.91
2018-06-22T10:43:04.179Z,53.71
2018-06-22T10:44:04.196Z,53.13
2018-06-22T10:45:04.207Z,53.91
2018-06-22T10:46:04.307Z,52.75
2018-06-22T10:47:04.235Z,51.61
2018-06-22T10:48:04.243Z,51.35
2018-06-22T10:49:04.249Z,51.81
2018-06-22T10:50:04.266Z,51.73
2018-06-22T10:51:04.270Z,52.22
2018-06-22T10:52:04.283Z,51.64
2018-06-22T10:53:04.306Z,51.28
2018-06-22T10:54:04.307Z,51.47
2018-06-22T10:55:04.326Z,50.89
2018-06-22T10:56:04.331Z,51.37
2018-06-22T10:57:04.350Z,50.12
2018-06-22T10:58:04.363Z,50.31
2018-06-22T10:59:04.376Z,50.89
2018-06-22T11:00:04.460Z,51.35
2018-06-22T11:01:04.398Z,51.37
2018-06-22T11:02:04.408Z,51.44
2018-06-22T11:03:04.427Z,51.18
2018-06-22T11:04:04.434Z,50.79
2018-06-22T11:05:04.467Z,49.92
2018-06-22T11:06:04.474Z,49.92
2018-06-22T11:07:04.482Z,49.17
2018-06-22T11:08:04.494Z,48.49
2018-06-22T11:09:04.502Z,48.97
2018-06-22T11:10:04.517Z,48.90
2018-06-22T11:11:04.532Z,47.77
2018-06-22T11:12:04.553Z,47.19
2018-06-22T11:13:04.561Z,47.19
2018-06-22T11:14:04.833Z,46.89
2018-06-22T11:15:04.588Z,47.86
2018-06-22T11:16:04.601Z,46.48
2018-06-22T11:17:04.702Z,47.16
2018-06-22T11:18:04.630Z,45.42
2018-06-22T11:19:04.647Z,45.42
2018-06-22T11:20:04.673Z,45.64
2018-06-22T11:21:04.681Z,45.54
2018-06-22T11:22:04.689Z,45.13
2018-06-22T11:23:04.695Z,45.54
2018-06-22T11:24:07.569Z,46.08
2018-06-22T11:25:04.730Z,47.14
2018-06-22T11:26:04.734Z,48.37
2018-06-22T11:27:04.770Z,48.95
2018-06-22T11:28:04.769Z,49.07
2018-06-22T11:29:04.789Z,48.79
2018-06-22T11:30:04.788Z,48.39
2018-06-22T11:31:04.818Z,48.11
2018-06-22T11:32:04.832Z,48.79
2018-06-22T11:33:06.576Z,48.18
2018-06-22T11:34:04.841Z,48.25
2018-06-22T11:35:04.856Z,48.61
2018-06-22T11:36:04.865Z,49.17
2018-06-22T11:37:07.585Z,50.62
2018-06-22T11:38:04.898Z,50.62
2018-06-22T11:39:04.908Z,51.56
2018-06-22T11:40:04.930Z,51.63
2018-06-22T11:41:04.932Z,52.69
2018-06-22T11:42:04.942Z,57.29
2018-06-22T11:43:04.954Z,61.51
2018-06-22T11:44:04.961Z,69.96
2018-06-22T11:45:04.978Z,74.45
2018-06-22T11:46:06.601Z,76.34
2018-06-22T11:47:05.002Z,74.19
2018-06-22T11:48:05.013Z,77.56
2018-06-22T11:49:05.023Z,77.26
2018-06-22T11:50:05.025Z,76.25
2018-06-22T11:51:06.609Z,76.69
2018-06-22T11:52:05.053Z,75.48
2018-06-22T11:53:05.053Z,74.32
2018-06-22T11:54:05.072Z,76.92
2018-06-22T11:55:05.070Z,77.31
2018-06-22T11:56:05.079Z,73.55
2018-06-22T11:57:05.100Z,73.01
2018-06-22T11:58:05.125Z,73.30
2018-06-22T11:59:06.368Z,76.28
2018-06-22T12:00:06.816Z,71.76
2018-06-22T12:01:06.863Z,74.30
2018-06-22T12:02:06.833Z,73.14
2018-06-22T12:03:06.685Z,71.22
2018-06-22T12:04:06.948Z,72.47
2018-06-22T12:05:05.495Z,70.41
2018-06-22T12:06:05.436Z,72.05
2018-06-22T12:07:06.530Z,72.43
2018-06-22T12:08:06.776Z,73.39
2018-06-22T12:09:06.609Z,72.08
2018-06-22T12:10:05.944Z,71.70
2018-06-22T12:11:05.612Z,71.70
2018-06-22T12:12:06.854Z,71.54
2018-06-22T12:13:06.882Z,69.96
2018-06-22T12:14:05.919Z,70.35
2018-06-22T12:15:08.319Z,71.02
2018-06-22T12:16:06.896Z,72.56
2018-06-22T12:17:05.891Z,72.05
2018-06-22T12:18:07.397Z,72.56
2018-06-22T12:19:06.939Z,69.67
2018-06-22T12:20:06.822Z,69.45
2018-06-22T12:21:06.844Z,68.58
2018-06-22T12:22:06.831Z,70.28
2018-06-22T12:23:06.663Z,70.18
2018-06-22T12:24:05.711Z,70.37
2018-06-22T12:25:06.601Z,69.95
2018-06-22T12:26:05.532Z,70.28
2018-06-22T12:27:06.667Z,69.89
2018-06-22T12:28:06.816Z,68.48
2018-06-22T12:29:05.838Z,67.13
2018-06-22T12:30:05.885Z,67.55
2018-06-22T12:31:06.773Z,66.30
2018-06-22T12:32:06.866Z,67.16
2018-06-22T12:33:06.792Z,65.98
2018-06-22T12:34:06.884Z,66.27
2018-06-22T12:35:07.521Z,65.98
2018-06-22T12:36:06.845Z,65.98
2018-06-22T12:37:05.966Z,65.69
2018-06-22T12:38:06.820Z,64.82
2018-06-22T12:39:05.923Z,63.18
2018-06-22T12:40:06.805Z,63.67
2018-06-22T12:41:06.941Z,62.83
2018-06-22T12:42:06.779Z,63.21
2018-06-22T12:43:06.128Z,63.24
2018-06-22T12:44:07.404Z,61.44
2018-06-22T12:45:05.560Z,59.61
2018-06-22T12:46:05.501Z,59.52
2018-06-22T12:47:05.514Z,59.71
2018-06-22T12:48:05.525Z,58.52
2018-06-22T12:49:05.529Z,58.49
2018-06-22T12:50:05.534Z,59.17
2018-06-22T12:51:05.546Z,62.22
2018-06-22T12:52:05.556Z,62.22
2018-06-22T12:53:05.562Z,62.57
2018-06-22T12:54:05.572Z,63.44
2018-06-22T12:55:05.579Z,63.73
2018-06-22T12:56:05.590Z,64.12
2018-06-22T12:57:05.589Z,64.12
2018-06-22T12:58:05.604Z,62.57
2018-06-22T12:59:05.601Z,62.32
2018-06-22T13:00:05.611Z,62.22
2018-06-22T13:01:05.627Z,61.55
2018-06-22T13:02:06.613Z,61.87
2018-06-22T13:03:05.641Z,61.19
2018-06-22T13:04:05.680Z,61.45
2018-06-22T13:05:05.655Z,60.10
2018-06-22T13:06:05.658Z,60.30
2018-06-22T13:07:05.663Z,60.58
2018-06-22T13:08:05.680Z,60.39
2018-06-22T13:09:05.696Z,60.58
2018-06-22T13:10:05.775Z,60.30
2018-06-22T13:11:05.691Z,59.52
2018-06-22T13:12:05.703Z,60.39
2018-06-22T13:13:05.712Z,60.39
2018-06-22T13:14:05.722Z,60.77
2018-06-22T13:15:05.720Z,60.68
2018-06-22T13:16:05.734Z,61.16
2018-06-22T13:17:05.801Z,60.87
2018-06-22T13:18:05.749Z,60.39
2018-06-22T13:19:05.752Z,61.71
2018-06-22T13:20:05.764Z,62.19
2018-06-22T13:21:05.770Z,62.57
2018-06-22T13:22:05.782Z,62.96
2018-06-22T13:23:05.847Z,62.38
2018-06-22T13:24:05.789Z,65.08
2018-06-22T13:25:05.800Z,66.88
2018-06-22T13:26:05.809Z,66.68
2018-06-22T13:27:05.831Z,67.07
2018-06-22T13:28:05.817Z,66.17
2018-06-22T13:29:05.833Z,68.57
2018-06-22T13:30:05.831Z,67.51
2018-06-22T13:31:05.845Z,70.15
2018-06-22T13:32:05.907Z,69.85
2018-06-22T13:33:05.910Z,69.95
2018-06-22T13:34:05.862Z,69.09
2018-06-22T13:35:05.873Z,68.99
2018-06-22T13:36:05.880Z,66.30
2018-06-22T13:37:05.910Z,65.33
2018-06-22T13:38:05.893Z,65.88
2018-06-22T13:39:05.894Z,67.51
2018-06-22T13:40:05.901Z,68.38
2018-06-22T13:41:05.915Z,69.34
2018-06-22T13:42:05.916Z,69.15
2018-06-22T13:43:05.927Z,70.11
2018-06-22T13:44:05.930Z,69.92
2018-06-22T13:45:05.940Z,69.73
2018-06-22T13:46:05.949Z,70.11
2018-06-22T13:47:05.953Z,70.01
2018-06-22T13:48:05.958Z,69.92
2018-06-22T13:49:05.968Z,70.43
2018-06-22T13:50:05.974Z,70.72
2018-06-22T13:51:06.234Z,70.34
2018-06-22T13:52:05.986Z,71.75
2018-06-22T13:53:05.988Z,71.46
2018-06-22T13:54:05.994Z,72.71
2018-06-22T13:55:06.007Z,72.23
2018-06-22T13:56:06.013Z,71.94
2018-06-22T13:57:06.123Z,72.23
2018-06-22T13:58:07.668Z,73.28
2018-06-22T13:59:06.027Z,71.94
2018-06-22T14:00:06.081Z,71.65
2018-06-22T14:01:06.171Z,71.84
2018-06-22T14:02:06.048Z,70.59
2018-06-22T14:03:06.052Z,71.08
2018-06-22T14:04:06.062Z,70.40
2018-06-22T14:05:06.074Z,70.88
2018-06-22T14:06:06.081Z,70.40
2018-06-22T14:07:06.670Z,70.40
2018-06-22T14:08:06.088Z,69.89
2018-06-22T14:09:06.089Z,69.53
2018-06-22T14:10:06.097Z,70.30
2018-06-22T14:11:06.109Z,69.60
2018-06-22T14:12:06.110Z,68.96
2018-06-22T14:13:06.123Z,70.07
2018-06-22T14:14:06.125Z,68.92
2018-06-22T14:15:06.128Z,69.12
2018-06-22T14:16:06.142Z,69.21
2018-06-22T14:17:06.136Z,69.98
2018-06-22T14:18:06.155Z,69.98
2018-06-22T14:19:06.154Z,69.92
2018-06-22T14:20:06.158Z,67.51
2018-06-22T14:21:06.170Z,66.36
2018-06-22T14:22:06.169Z,66.20
2018-06-22T14:23:06.185Z,64.25
2018-06-22T14:24:06.190Z,64.69